createdAt,value
2023-02-13T00:00:20.566Z,2.56
2023-02-13T00:02:47.573Z,2.59
2023-02-13T00:05:14.437Z,2.59
2023-02-13T00:07:57.462Z,2.58
2023-02-13T00:10:24.460Z,2.58
2023-02-13T00:12:51.266Z,2.58
2023-02-13T00:15:18.715Z,2.59
2023-02-13T00:17:45.498Z,2.59
2023-02-13T00:20:12.850Z,2.60
2023-02-13T00:22:40.074Z,2.62
2023-02-13T00:25:08.173Z,2.65
2023-02-13T00:27:35.032Z,2.68
2023-02-13T00:30:02.713Z,2.69
2023-02-13T00:32:29.645Z,2.67
2023-02-13T00:34:56.745Z,2.67
2023-02-13T00:37:23.578Z,2.69
2023-02-13T00:39:52.167Z,2.70
2023-02-13T00:42:18.972Z,2.72
2023-02-13T00:44:45.744Z,2.73
2023-02-13T00:47:14.941Z,2.73
2023-02-13T00:49:41.949Z,2.72
2023-02-13T00:52:08.666Z,2.70
2023-02-13T00:54:35.403Z,2.69
2023-02-13T00:57:03.034Z,2.69
2023-02-13T00:59:30.081Z,2.70
2023-02-13T01:01:57.011Z,2.71
2023-02-13T01:04:23.839Z,2.70
2023-02-13T01:06:50.593Z,2.69
2023-02-13T01:09:17.451Z,2.65
2023-02-13T01:11:44.342Z,2.65
2023-02-13T01:14:11.073Z,2.66
2023-02-13T01:16:37.902Z,2.67
2023-02-13T01:19:04.827Z,2.69
2023-02-13T01:21:31.630Z,2.71
2023-02-13T01:23:58.740Z,2.70
2023-02-13T01:26:25.550Z,2.70
2023-02-13T01:28:54.645Z,2.71
2023-02-13T01:31:22.347Z,2.74
2023-02-13T01:33:51.105Z,2.74
2023-02-13T01:36:21.142Z,2.75
2023-02-13T01:38:48.073Z,2.73
2023-02-13T01:41:15.815Z,2.74
2023-02-13T01:43:45.105Z,2.74
2023-02-13T01:46:14.477Z,2.74
2023-02-13T01:48:41.592Z,2.75
2023-02-13T01:51:13.225Z,2.77
2023-02-13T01:53:49.876Z,2.76
2023-02-13T01:56:25.740Z,2.75
2023-02-13T01:58:54.525Z,2.73
2023-02-13T02:01:23.449Z,2.71
2023-02-13T02:03:59.691Z,2.70
2023-02-13T02:06:34.801Z,2.71
2023-02-13T02:09:06.482Z,2.72
2023-02-13T02:11:42.498Z,2.76
2023-02-13T02:14:11.568Z,2.78
2023-02-13T02:16:38.304Z,2.78
2023-02-13T02:19:14.569Z,2.76
2023-02-13T02:21:55.425Z,2.75
2023-02-13T02:24:47.789Z,2.73
2023-02-13T02:27:20.795Z,2.72
2023-02-13T02:30:14.349Z,2.74
2023-02-13T02:32:56.672Z,2.76
2023-02-13T02:35:31.446Z,2.78
2023-02-13T02:37:59.228Z,2.79
2023-02-13T02:40:35.440Z,2.78
2023-02-13T02:43:26.141Z,2.77
2023-02-13T02:46:01.576Z,2.79
2023-02-13T02:48:51.674Z,2.77
2023-02-13T02:51:31.526Z,2.77
2023-02-13T02:54:33.081Z,2.76
2023-02-13T02:57:07.651Z,2.74
2023-02-13T02:59:52.975Z,2.73
2023-02-13T03:02:36.731Z,2.73
2023-02-13T03:05:19.650Z,2.75
2023-02-13T03:07:46.718Z,2.78
2023-02-13T03:10:39.698Z,2.79
2023-02-13T03:13:24.505Z,2.82
2023-02-13T03:16:13.162Z,2.81
2023-02-13T03:18:58.876Z,2.82
2023-02-13T03:22:03.253Z,2.82
2023-02-13T03:24:34.542Z,2.82
2023-02-13T03:27:45.121Z,2.85
2023-02-13T03:30:33.419Z,2.97
2023-02-13T03:33:08.233Z,3.06
2023-02-13T03:36:02.895Z,3.11
2023-02-13T03:38:46.923Z,3.12
2023-02-13T03:41:20.194Z,3.08
2023-02-13T03:43:53.542Z,3.08
2023-02-13T03:46:21.933Z,3.08
2023-02-13T03:49:04.233Z,3.09
2023-02-13T03:51:40.911Z,3.11
2023-02-13T03:54:21.567Z,3.14
2023-02-13T03:57:06.064Z,3.17
2023-02-13T03:59:35.103Z,3.19
2023-02-13T04:02:11.387Z,3.21
2023-02-13T04:04:58.650Z,3.20
2023-02-13T04:07:33.344Z,3.20
2023-02-13T04:10:05.089Z,3.23
2023-02-13T04:12:44.489Z,3.25
2023-02-13T04:15:26.862Z,3.31
2023-02-13T04:18:05.096Z,3.38
2023-02-13T04:20:33.250Z,3.45
2023-02-13T04:23:07.934Z,3.51
2023-02-13T04:25:37.963Z,3.55
2023-02-13T04:28:04.924Z,3.56
2023-02-13T04:30:33.705Z,3.53
2023-02-13T04:33:00.416Z,3.53
2023-02-13T04:35:27.181Z,3.53
2023-02-13T04:37:54.201Z,3.57
2023-02-13T04:40:20.996Z,3.60
2023-02-13T04:42:49.175Z,3.61
2023-02-13T04:45:16.957Z,3.61
2023-02-13T04:47:44.437Z,3.61
2023-02-13T04:50:11.297Z,3.60
2023-02-13T04:52:38.047Z,3.58
2023-02-13T04:55:05.099Z,3.57
2023-02-13T04:57:31.806Z,3.59
2023-02-13T04:59:58.638Z,3.64
2023-02-13T05:02:25.558Z,3.69
2023-02-13T05:04:52.278Z,3.67
2023-02-13T05:07:19.050Z,3.65
2023-02-13T05:09:45.772Z,3.61
2023-02-13T05:12:12.467Z,3.57
2023-02-13T05:14:39.523Z,3.58
2023-02-13T05:17:06.327Z,3.58
2023-02-13T05:19:33.050Z,3.58
2023-02-13T05:22:15.255Z,3.57
2023-02-13T05:24:42.149Z,3.53
2023-02-13T05:27:08.857Z,3.49
2023-02-13T05:29:35.663Z,3.45
2023-02-13T05:32:02.557Z,3.41
2023-02-13T05:34:29.512Z,3.36
2023-02-13T05:36:56.798Z,3.28
2023-02-13T05:39:23.551Z,3.31
2023-02-13T05:41:50.361Z,3.32
2023-02-13T05:44:17.283Z,3.36
2023-02-13T05:46:45.024Z,3.40
2023-02-13T05:49:13.988Z,3.43
2023-02-13T05:51:42.255Z,3.41
2023-02-13T05:54:09.117Z,3.39
2023-02-13T05:56:35.921Z,3.37
2023-02-13T05:59:02.732Z,3.37
2023-02-13T06:01:29.779Z,3.38
2023-02-13T06:03:58.776Z,3.42
2023-02-13T06:06:26.243Z,3.44
2023-02-13T06:08:53.210Z,3.44
2023-02-13T06:11:20.135Z,3.45
2023-02-13T06:13:46.998Z,3.46
2023-02-13T06:16:14.278Z,3.46
2023-02-13T06:18:41.152Z,3.45
2023-02-13T06:21:08.798Z,3.46
2023-02-13T06:23:35.951Z,3.48
2023-02-13T06:26:05.254Z,3.54
2023-02-13T06:28:32.294Z,3.59
2023-02-13T06:30:59.897Z,3.59
2023-02-13T06:33:27.035Z,3.59
2023-02-13T06:35:53.955Z,3.57
2023-02-13T06:38:21.608Z,3.57
2023-02-13T06:40:49.710Z,3.57
2023-02-13T06:43:17.947Z,3.59
2023-02-13T06:45:47.075Z,3.65
2023-02-13T06:48:14.611Z,3.70
2023-02-13T06:50:41.562Z,3.72
2023-02-13T06:53:08.592Z,3.75
2023-02-13T06:55:36.670Z,3.77
2023-02-13T06:58:03.399Z,3.76
2023-02-13T07:00:30.480Z,3.76
2023-02-13T07:03:04.365Z,3.75
2023-02-13T07:05:31.950Z,3.75
2023-02-13T07:07:58.734Z,3.78
2023-02-13T07:10:25.637Z,3.79
2023-02-13T07:13:04.968Z,3.84
2023-02-13T07:15:34.908Z,3.88
2023-02-13T07:18:01.933Z,3.87
2023-02-13T07:20:29.324Z,3.88
2023-02-13T07:23:00.629Z,3.90
2023-02-13T07:25:28.339Z,3.95
2023-02-13T07:27:55.996Z,4.01
2023-02-13T07:30:22.733Z,4.08
2023-02-13T07:32:49.584Z,4.13
2023-02-13T07:35:16.483Z,4.20
2023-02-13T07:37:43.211Z,4.26
2023-02-13T07:40:10.538Z,4.28
2023-02-13T07:42:37.440Z,4.33
2023-02-13T07:45:06.596Z,4.36
2023-02-13T07:47:34.401Z,4.40
2023-02-13T07:50:02.725Z,4.44
2023-02-13T07:52:29.449Z,4.51
2023-02-13T07:54:56.297Z,4.62
2023-02-13T07:57:23.013Z,4.66
2023-02-13T07:59:49.743Z,4.68
2023-02-13T08:02:17.209Z,4.73
2023-02-13T08:04:46.569Z,4.85
2023-02-13T08:07:15.067Z,5.01
2023-02-13T08:10:04.779Z,5.11
2023-02-13T08:12:32.678Z,5.15
2023-02-13T08:14:59.497Z,5.19
2023-02-13T08:17:26.467Z,5.23
2023-02-13T08:19:53.197Z,5.25
2023-02-13T08:22:19.980Z,5.26
2023-02-13T08:24:46.741Z,5.25
2023-02-13T08:27:14.611Z,5.25
2023-02-13T08:29:41.748Z,5.27
2023-02-13T08:32:08.587Z,5.30
2023-02-13T08:34:35.390Z,5.26
2023-02-13T08:37:03.632Z,5.23
2023-02-13T08:39:30.566Z,5.21
2023-02-13T08:41:57.484Z,5.22
2023-02-13T08:44:24.249Z,5.27
2023-02-13T08:46:51.084Z,5.31
2023-02-13T08:49:17.974Z,5.32
2023-02-13T08:51:45.419Z,5.30
2023-02-13T08:54:12.165Z,5.31
2023-02-13T08:56:39.034Z,5.31
2023-02-13T08:59:05.805Z,5.30
2023-02-13T09:01:32.739Z,5.33
2023-02-13T09:03:59.502Z,5.40
2023-02-13T09:06:27.702Z,5.52
2023-02-13T09:08:55.043Z,5.68
2023-02-13T09:11:23.562Z,5.78
2023-02-13T09:13:53.804Z,5.87
2023-02-13T09:16:21.477Z,5.94
2023-02-13T09:18:51.327Z,6.00
2023-02-13T09:21:20.738Z,6.10
2023-02-13T09:23:47.536Z,6.20
2023-02-13T09:26:16.013Z,6.20
2023-02-13T09:28:43.337Z,6.24
2023-02-13T09:31:17.583Z,6.30
2023-02-13T09:33:46.135Z,6.35
2023-02-13T09:36:16.568Z,6.49
2023-02-13T09:38:44.294Z,6.69
2023-02-13T09:41:17.440Z,6.76
2023-02-13T09:43:47.689Z,6.70
2023-02-13T09:46:20.524Z,6.67
2023-02-13T09:48:51.108Z,6.73
2023-02-13T09:51:20.402Z,6.79
2023-02-13T09:53:54.623Z,6.76
2023-02-13T09:56:24.102Z,6.70
2023-02-13T09:59:01.306Z,6.55
2023-02-13T10:01:34.304Z,6.39
2023-02-13T10:04:31.298Z,6.34
2023-02-13T10:07:27.435Z,6.43
2023-02-13T10:09:59.163Z,6.59
2023-02-13T10:12:56.556Z,6.75
2023-02-13T10:15:24.584Z,6.89
2023-02-13T10:17:59.596Z,7.02
2023-02-13T10:20:37.513Z,7.14
2023-02-13T10:23:18.539Z,7.17
2023-02-13T10:25:57.703Z,7.21
2023-02-13T10:29:15.513Z,7.25
2023-02-13T10:31:45.646Z,7.16
2023-02-13T10:34:17.267Z,7.11
2023-02-13T10:36:46.632Z,7.09
2023-02-13T10:39:29.932Z,7.10
2023-02-13T10:42:06.269Z,7.07
2023-02-13T10:44:40.700Z,7.03
2023-02-13T10:47:24.245Z,6.97
2023-02-13T10:50:00.929Z,6.93
2023-02-13T10:52:58.843Z,6.91
2023-02-13T10:55:42.291Z,6.89
2023-02-13T10:58:09.618Z,6.87
2023-02-13T11:01:02.766Z,6.83
2023-02-13T11:03:30.663Z,6.81
2023-02-13T11:05:59.549Z,6.78
2023-02-13T11:08:40.116Z,6.75
2023-02-13T11:11:29.493Z,6.70
2023-02-13T11:14:13.675Z,6.66
2023-02-13T11:16:59.652Z,6.66
2023-02-13T11:19:33.808Z,6.72
2023-02-13T11:22:03.116Z,6.73
2023-02-13T11:24:31.214Z,6.72
2023-02-13T11:27:01.493Z,6.74
2023-02-13T11:29:31.995Z,6.75
2023-02-13T11:32:03.839Z,6.71
2023-02-13T11:34:33.433Z,6.67
2023-02-13T11:37:19.687Z,6.64
2023-02-13T11:39:51.238Z,6.66
2023-02-13T11:42:24.871Z,6.63
2023-02-13T11:44:57.330Z,6.60
2023-02-13T11:47:41.264Z,6.58
2023-02-13T11:50:21.920Z,6.53
2023-02-13T11:53:03.868Z,6.49
2023-02-13T11:55:34.700Z,6.49
2023-02-13T11:58:22.089Z,6.52
2023-02-13T12:00:48.851Z,6.57
2023-02-13T12:03:31.906Z,6.59
2023-02-13T12:06:03.015Z,6.58
2023-02-13T12:08:32.003Z,6.55
2023-02-13T12:11:00.749Z,6.53
2023-02-13T12:13:43.460Z,6.50
2023-02-13T12:16:41.483Z,6.43
2023-02-13T12:19:15.665Z,6.35
2023-02-13T12:21:57.692Z,6.30
2023-02-13T12:24:27.872Z,6.25
2023-02-13T12:27:10.606Z,6.26
2023-02-13T12:29:53.770Z,6.22
2023-02-13T12:32:22.351Z,6.20
2023-02-13T12:35:04.654Z,6.20
2023-02-13T12:37:33.480Z,6.22
2023-02-13T12:40:17.919Z,6.32
2023-02-13T12:42:52.191Z,6.40
2023-02-13T12:45:35.302Z,6.42
2023-02-13T12:48:25.016Z,6.44
2023-02-13T12:51:00.481Z,6.42
2023-02-13T12:53:58.488Z,6.43
2023-02-13T12:56:42.391Z,6.43
2023-02-13T12:59:30.736Z,6.41
2023-02-13T13:02:09.380Z,6.43
2023-02-13T13:04:50.616Z,6.41
2023-02-13T13:07:33.554Z,6.35
2023-02-13T13:10:27.736Z,6.33
2023-02-13T13:13:18.976Z,6.29
2023-02-13T13:16:00.928Z,6.30
2023-02-13T13:18:36.158Z,6.32
2023-02-13T13:21:18.280Z,6.35
2023-02-13T13:24:08.184Z,6.33
2023-02-13T13:26:42.201Z,6.29
2023-02-13T13:29:19.424Z,6.26
2023-02-13T13:31:54.113Z,6.28
2023-02-13T13:34:25.199Z,6.27
2023-02-13T13:37:03.953Z,6.26
2023-02-13T13:39:41.203Z,6.30
2023-02-13T13:42:13.557Z,6.37
2023-02-13T13:45:03.266Z,6.46
2023-02-13T13:47:39.031Z,6.51
2023-02-13T13:50:17.797Z,6.58
2023-02-13T13:53:13.242Z,6.66
2023-02-13T13:55:47.592Z,6.72
2023-02-13T13:58:45.605Z,6.77
2023-02-13T14:01:31.546Z,6.77
2023-02-13T14:04:02.296Z,6.78
2023-02-13T14:06:49.165Z,6.80
2023-02-13T14:09:46.677Z,6.82
2023-02-13T14:12:32.054Z,6.80
2023-02-13T14:15:00.036Z,6.76
2023-02-13T14:17:45.753Z,6.78
2023-02-13T14:20:40.077Z,6.81
2023-02-13T14:23:17.397Z,6.85
2023-02-13T14:25:45.198Z,6.90
2023-02-13T14:28:23.631Z,7.01
2023-02-13T14:30:52.489Z,7.13
2023-02-13T14:33:28.641Z,7.20
2023-02-13T14:36:04.638Z,7.26
2023-02-13T14:38:32.087Z,7.37
2023-02-13T14:40:59.641Z,7.40
2023-02-13T14:43:37.307Z,7.42
2023-02-13T14:46:08.941Z,7.41
2023-02-13T14:48:42.144Z,7.34
2023-02-13T14:51:22.035Z,7.31
2023-02-13T14:53:54.591Z,7.23
2023-02-13T14:56:23.094Z,7.15
2023-02-13T14:58:58.527Z,7.10
2023-02-13T15:01:34.507Z,7.05
2023-02-13T15:04:12.184Z,6.91
2023-02-13T15:06:42.694Z,6.80
2023-02-13T15:09:32.987Z,6.72
2023-02-13T15:12:00.549Z,6.60
2023-02-13T15:14:28.251Z,6.54
2023-02-13T15:16:59.791Z,6.50
2023-02-13T15:19:26.804Z,6.42
2023-02-13T15:21:58.719Z,6.30
2023-02-13T15:24:26.934Z,6.16
2023-02-13T15:26:59.243Z,6.07
2023-02-13T15:29:29.536Z,5.99
2023-02-13T15:32:00.123Z,5.95
2023-02-13T15:34:32.307Z,5.92
2023-02-13T15:36:59.189Z,5.82
2023-02-13T15:39:29.697Z,5.71
2023-02-13T15:42:00.168Z,5.59
2023-02-13T15:44:37.379Z,5.49
2023-02-13T15:47:09.196Z,5.45
2023-02-13T15:49:43.240Z,5.40
2023-02-13T15:52:19.781Z,5.32
2023-02-13T15:54:50.514Z,5.23
2023-02-13T15:57:18.164Z,5.11
2023-02-13T15:59:45.959Z,4.97
2023-02-13T16:02:19.747Z,4.86
2023-02-13T16:04:49.508Z,4.81
2023-02-13T16:07:16.320Z,4.79
2023-02-13T16:09:43.311Z,4.81
2023-02-13T16:12:26.816Z,4.83
2023-02-13T16:15:15.965Z,4.81
2023-02-13T16:17:46.201Z,4.75
2023-02-13T16:20:12.951Z,4.71
2023-02-13T16:22:48.823Z,4.66
2023-02-13T16:25:28.907Z,4.62
2023-02-13T16:27:57.620Z,4.61
2023-02-13T16:30:45.138Z,4.63
2023-02-13T16:33:15.418Z,4.62
2023-02-13T16:36:02.379Z,4.59
2023-02-13T16:38:31.391Z,4.56
2023-02-13T16:41:22.570Z,4.55
2023-02-13T16:43:54.804Z,4.56
2023-02-13T16:46:28.101Z,4.56
2023-02-13T16:48:58.588Z,4.58
2023-02-13T16:51:34.684Z,4.57
2023-02-13T16:54:14.693Z,4.54
2023-02-13T16:57:02.912Z,4.51
2023-02-13T16:59:42.292Z,4.49
2023-02-13T17:02:16.074Z,4.49
2023-02-13T17:04:47.239Z,4.49
2023-02-13T17:07:16.273Z,4.51
2023-02-13T17:09:43.419Z,4.46
2023-02-13T17:12:18.496Z,4.39
2023-02-13T17:14:45.774Z,4.33
2023-02-13T17:17:15.735Z,4.31
2023-02-13T17:19:43.075Z,4.31
2023-02-13T17:22:33.409Z,4.35
2023-02-13T17:25:01.146Z,4.33
2023-02-13T17:27:27.966Z,4.31
2023-02-13T17:29:54.814Z,4.31
2023-02-13T17:32:25.524Z,4.28
2023-02-13T17:34:53.401Z,4.24
2023-02-13T17:37:24.657Z,4.19
2023-02-13T17:39:51.852Z,4.16
2023-02-13T17:42:24.453Z,4.15
2023-02-13T17:44:51.900Z,4.17
2023-02-13T17:47:19.998Z,4.20
2023-02-13T17:49:47.822Z,4.22
2023-02-13T17:52:21.475Z,4.21
2023-02-13T17:54:49.197Z,4.19
2023-02-13T17:57:18.382Z,4.19
2023-02-13T17:59:46.463Z,4.20
2023-02-13T18:02:18.169Z,4.20
2023-02-13T18:04:46.625Z,4.22
2023-02-13T18:07:16.301Z,4.25
2023-02-13T18:09:43.350Z,4.27
2023-02-13T18:12:14.473Z,4.28
2023-02-13T18:14:41.810Z,4.29
2023-02-13T18:17:08.991Z,4.30
2023-02-13T18:19:37.452Z,4.28
2023-02-13T18:22:06.089Z,4.24
2023-02-13T18:24:34.013Z,4.22
2023-02-13T18:27:01.399Z,4.26
2023-02-13T18:29:28.222Z,4.31
2023-02-13T18:31:55.537Z,4.33
2023-02-13T18:34:23.585Z,4.33
2023-02-13T18:36:50.839Z,4.34
2023-02-13T18:39:18.149Z,4.33
2023-02-13T18:41:45.348Z,4.32
2023-02-13T18:44:17.266Z,4.34
2023-02-13T18:46:50.348Z,4.37
2023-02-13T18:49:17.188Z,4.40
2023-02-13T18:51:44.794Z,4.42
2023-02-13T18:54:11.784Z,4.43
2023-02-13T18:56:38.921Z,4.43
2023-02-13T18:59:05.852Z,4.42
2023-02-13T19:01:32.860Z,4.43
2023-02-13T19:04:01.434Z,4.44
2023-02-13T19:06:28.661Z,4.45
2023-02-13T19:08:56.536Z,4.47
2023-02-13T19:11:25.150Z,4.49
2023-02-13T19:13:55.319Z,4.48
2023-02-13T19:16:22.714Z,4.43
2023-02-13T19:18:53.143Z,4.41
2023-02-13T19:21:23.268Z,4.39
2023-02-13T19:23:51.703Z,4.40
2023-02-13T19:26:21.549Z,4.40
2023-02-13T19:28:49.275Z,4.46
2023-02-13T19:31:19.802Z,4.49
2023-02-13T19:33:47.928Z,4.49
2023-02-13T19:36:19.466Z,4.49
2023-02-13T19:38:48.237Z,4.46
2023-02-13T19:41:17.773Z,4.47
2023-02-13T19:43:51.005Z,4.50
2023-02-13T19:46:22.878Z,4.53
2023-02-13T19:48:50.383Z,4.54
2023-02-13T19:51:21.398Z,4.53
2023-02-13T19:53:48.406Z,4.54
2023-02-13T19:56:30.873Z,4.55
2023-02-13T19:58:57.735Z,4.53
2023-02-13T20:01:26.658Z,4.52
2023-02-13T20:03:54.038Z,4.51
2023-02-13T20:06:32.082Z,4.53
2023-02-13T20:09:00.120Z,4.58
2023-02-13T20:11:27.611Z,4.61
2023-02-13T20:13:56.729Z,4.61
2023-02-13T20:16:24.485Z,4.59
2023-02-13T20:18:52.761Z,4.58
2023-02-13T20:21:19.771Z,4.56
2023-02-13T20:23:50.443Z,4.56
2023-02-13T20:26:19.019Z,4.55
2023-02-13T20:28:46.995Z,4.57
2023-02-13T20:31:16.777Z,4.58
2023-02-13T20:33:43.958Z,4.62
2023-02-13T20:36:13.139Z,4.66
2023-02-13T20:38:41.029Z,4.67
2023-02-13T20:41:09.868Z,4.63
2023-02-13T20:43:37.631Z,4.61
2023-02-13T20:46:05.853Z,4.60
2023-02-13T20:48:35.542Z,4.64
2023-02-13T20:51:04.732Z,4.65
2023-02-13T20:53:33.120Z,4.66
2023-02-13T20:56:03.936Z,4.65
2023-02-13T20:58:32.226Z,4.65
2023-02-13T21:00:59.598Z,4.64
2023-02-13T21:03:27.005Z,4.63
2023-02-13T21:05:53.835Z,4.61
2023-02-13T21:08:20.687Z,4.62
2023-02-13T21:10:47.535Z,4.60
2023-02-13T21:13:14.243Z,4.61
2023-02-13T21:15:41.165Z,4.64
2023-02-13T21:18:08.271Z,4.66
2023-02-13T21:20:36.602Z,4.69
2023-02-13T21:23:05.429Z,4.69
2023-02-13T21:25:33.405Z,4.67
2023-02-13T21:28:00.164Z,4.64
2023-02-13T21:30:27.357Z,4.64
2023-02-13T21:32:54.160Z,4.64
2023-02-13T21:35:20.878Z,4.66
2023-02-13T21:37:47.639Z,4.69
2023-02-13T21:40:14.644Z,4.71
2023-02-13T21:42:41.341Z,4.74
2023-02-13T21:45:08.588Z,4.75
2023-02-13T21:47:35.519Z,4.75
2023-02-13T21:50:02.231Z,4.74
2023-02-13T21:52:29.139Z,4.70
2023-02-13T21:54:55.908Z,4.62
2023-02-13T21:57:22.666Z,4.55
2023-02-13T21:59:49.585Z,4.55
2023-02-13T22:02:16.647Z,4.58
2023-02-13T22:04:43.502Z,4.61
2023-02-13T22:07:10.378Z,4.63
2023-02-13T22:09:37.188Z,4.65
2023-02-13T22:12:04.516Z,4.65
2023-02-13T22:14:31.211Z,4.63
2023-02-13T22:16:58.135Z,4.62
2023-02-13T22:19:25.002Z,4.62
2023-02-13T22:21:51.790Z,4.63
2023-02-13T22:24:18.512Z,4.65
2023-02-13T22:26:45.543Z,4.66
2023-02-13T22:29:14.724Z,4.62
2023-02-13T22:31:42.258Z,4.55
2023-02-13T22:34:12.022Z,4.52
2023-02-13T22:36:39.260Z,4.51
2023-02-13T22:39:08.030Z,4.51
2023-02-13T22:41:35.144Z,4.51
2023-02-13T22:44:01.960Z,4.54
2023-02-13T22:46:31.199Z,4.57
2023-02-13T22:48:59.568Z,4.60
2023-02-13T22:51:29.585Z,4.57
2023-02-13T22:53:57.723Z,4.53
2023-02-13T22:56:26.619Z,4.49
2023-02-13T22:58:53.710Z,4.47
2023-02-13T23:01:22.721Z,4.46
2023-02-13T23:03:49.852Z,4.43
2023-02-13T23:06:17.889Z,4.44
2023-02-13T23:08:45.072Z,4.46
2023-02-13T23:11:30.477Z,4.46
2023-02-13T23:13:57.382Z,4.44
2023-02-13T23:16:24.631Z,4.41
2023-02-13T23:18:53.567Z,4.35
2023-02-13T23:21:20.942Z,4.33
2023-02-13T23:23:47.757Z,4.31
2023-02-13T23:26:15.368Z,4.32
2023-02-13T23:28:42.318Z,4.33
2023-02-13T23:31:09.349Z,4.35
2023-02-13T23:33:36.280Z,4.36
2023-02-13T23:36:03.190Z,4.38
2023-02-13T23:38:30.011Z,4.37
2023-02-13T23:40:56.884Z,4.34
2023-02-13T23:43:23.871Z,4.33
2023-02-13T23:45:50.892Z,4.35
2023-02-13T23:48:17.626Z,4.36
2023-02-13T23:50:44.389Z,4.38
2023-02-13T23:53:11.248Z,4.39
2023-02-13T23:55:37.991Z,4.41
2023-02-13T23:58:04.794Z,4.38
